sensor_id;sensor_type;location;lat;lon;timestamp;P1;durP1;ratioP1;P2;durP2;ratioP2
840;SDS011;406;48.566;13.450;2022-11-10T00:00:20;16.77;;;10.63;;
840;SDS011;406;48.566;13.450;2022-11-10T00:03:05;16.00;;;10.20;;
840;SDS011;406;48.566;13.450;2022-11-10T00:05:50;19.63;;;12.13;;
840;SDS011;406;48.566;13.450;2022-11-10T00:08:34;17.97;;;11.30;;
840;SDS011;406;48.566;13.450;2022-11-10T00:11:18;15.83;;;11.17;;
840;SDS011;406;48.566;13.450;2022-11-10T00:14:02;19.97;;;12.23;;
840;SDS011;406;48.566;13.450;2022-11-10T00:17:05;15.00;;;11.07;;
840;SDS011;406;48.566;13.450;2022-11-10T00:19:49;14.70;;;10.57;;
840;SDS011;406;48.566;13.450;2022-11-10T00:22:33;15.07;;;9.50;;
840;SDS011;406;48.566;13.450;2022-11-10T00:25:18;12.67;;;8.87;;
840;SDS011;406;48.566;13.450;2022-11-10T00:28:03;20.50;;;10.20;;
840;SDS011;406;48.566;13.450;2022-11-10T00:30:47;14.57;;;10.10;;
840;SDS011;406;48.566;13.450;2022-11-10T00:33:32;16.60;;;11.10;;
840;SDS011;406;48.566;13.450;2022-11-10T00:36:17;20.33;;;11.73;;
840;SDS011;406;48.566;13.450;2022-11-10T00:39:01;14.53;;;9.83;;
840;SDS011;406;48.566;13.450;2022-11-10T00:41:45;15.37;;;10.73;;
840;SDS011;406;48.566;13.450;2022-11-10T00:44:30;12.63;;;9.17;;
840;SDS011;406;48.566;13.450;2022-11-10T00:47:14;15.90;;;10.03;;
840;SDS011;406;48.566;13.450;2022-11-10T00:49:58;10.90;;;9.10;;
840;SDS011;406;48.566;13.450;2022-11-10T00:52:42;17.47;;;9.50;;
840;SDS011;406;48.566;13.450;2022-11-10T00:55:26;17.40;;;9.73;;
840;SDS011;406;48.566;13.450;2022-11-10T00:58:10;13.50;;;8.50;;
840;SDS011;406;48.566;13.450;2022-11-10T01:01:01;16.37;;;10.73;;
840;SDS011;406;48.566;13.450;2022-11-10T01:03:46;16.60;;;10.37;;
840;SDS011;406;48.566;13.450;2022-11-10T01:06:30;14.03;;;9.53;;
840;SDS011;406;48.566;13.450;2022-11-10T01:09:15;18.37;;;11.63;;
840;SDS011;406;48.566;13.450;2022-11-10T01:11:58;17.73;;;10.47;;
840;SDS011;406;48.566;13.450;2022-11-10T01:14:43;13.70;;;10.13;;
840;SDS011;406;48.566;13.450;2022-11-10T01:17:30;14.03;;;10.57;;
840;SDS011;406;48.566;13.450;2022-11-10T01:20:14;12.03;;;8.63;;
840;SDS011;406;48.566;13.450;2022-11-10T01:22:59;14.20;;;9.43;;
840;SDS011;406;48.566;13.450;2022-11-10T01:25:43;14.73;;;10.90;;
840;SDS011;406;48.566;13.450;2022-11-10T01:28:27;15.57;;;10.40;;
840;SDS011;406;48.566;13.450;2022-11-10T01:31:16;13.60;;;8.63;;
840;SDS011;406;48.566;13.450;2022-11-10T01:34:01;12.67;;;8.80;;
840;SDS011;406;48.566;13.450;2022-11-10T01:36:46;13.23;;;9.17;;
840;SDS011;406;48.566;13.450;2022-11-10T01:39:30;15.70;;;9.63;;
840;SDS011;406;48.566;13.450;2022-11-10T01:42:13;12.80;;;8.63;;
840;SDS011;406;48.566;13.450;2022-11-10T01:48:38;14.97;;;9.10;;
840;SDS011;406;48.566;13.450;2022-11-10T01:51:33;14.17;;;8.47;;
840;SDS011;406;48.566;13.450;2022-11-10T01:54:30;14.50;;;9.63;;
840;SDS011;406;48.566;13.450;2022-11-10T01:57:16;14.03;;;9.63;;
840;SDS011;406;48.566;13.450;2022-11-10T02:00:00;12.43;;;8.20;;
840;SDS011;406;48.566;13.450;2022-11-10T02:05:44;12.10;;;8.87;;
840;SDS011;406;48.566;13.450;2022-11-10T02:08:28;14.10;;;8.63;;
840;SDS011;406;48.566;13.450;2022-11-10T02:11:13;12.10;;;8.23;;
840;SDS011;406;48.566;13.450;2022-11-10T02:13:57;12.93;;;8.23;;
840;SDS011;406;48.566;13.450;2022-11-10T02:16:41;13.27;;;9.37;;
840;SDS011;406;48.566;13.450;2022-11-10T02:19:26;10.17;;;7.87;;
840;SDS011;406;48.566;13.450;2022-11-10T02:22:10;16.17;;;8.80;;
840;SDS011;406;48.566;13.450;2022-11-10T02:24:54;15.00;;;8.10;;
840;SDS011;406;48.566;13.450;2022-11-10T02:27:38;15.23;;;9.50;;
840;SDS011;406;48.566;13.450;2022-11-10T02:30:22;13.00;;;9.13;;
840;SDS011;406;48.566;13.450;2022-11-10T02:33:06;12.47;;;8.37;;
840;SDS011;406;48.566;13.450;2022-11-10T02:35:50;16.67;;;8.00;;
840;SDS011;406;48.566;13.450;2022-11-10T02:38:35;9.70;;;7.67;;
840;SDS011;406;48.566;13.450;2022-11-10T02:41:19;11.13;;;8.20;;
840;SDS011;406;48.566;13.450;2022-11-10T02:44:03;14.67;;;7.20;;
840;SDS011;406;48.566;13.450;2022-11-10T02:46:48;11.53;;;8.93;;
840;SDS011;406;48.566;13.450;2022-11-10T02:49:33;11.57;;;7.97;;
840;SDS011;406;48.566;13.450;2022-11-10T02:52:17;11.40;;;8.17;;
840;SDS011;406;48.566;13.450;2022-11-10T02:55:01;12.40;;;7.90;;
840;SDS011;406;48.566;13.450;2022-11-10T02:57:46;15.00;;;8.10;;
840;SDS011;406;48.566;13.450;2022-11-10T03:00:30;14.30;;;8.47;;
840;SDS011;406;48.566;13.450;2022-11-10T03:03:14;16.60;;;10.20;;
840;SDS011;406;48.566;13.450;2022-11-10T03:05:59;12.53;;;8.53;;
840;SDS011;406;48.566;13.450;2022-11-10T03:08:43;11.07;;;8.50;;
840;SDS011;406;48.566;13.450;2022-11-10T03:11:27;12.93;;;8.60;;
840;SDS011;406;48.566;13.450;2022-11-10T03:14:11;15.90;;;8.30;;
840;SDS011;406;48.566;13.450;2022-11-10T03:16:55;11.60;;;7.93;;
840;SDS011;406;48.566;13.450;2022-11-10T03:19:39;13.03;;;9.13;;
840;SDS011;406;48.566;13.450;2022-11-10T03:22:23;12.17;;;9.37;;
840;SDS011;406;48.566;13.450;2022-11-10T03:25:07;18.03;;;9.00;;
840;SDS011;406;48.566;13.450;2022-11-10T03:27:52;9.43;;;7.73;;
840;SDS011;406;48.566;13.450;2022-11-10T03:30:36;13.13;;;8.50;;
840;SDS011;406;48.566;13.450;2022-11-10T03:33:21;12.87;;;7.90;;
840;SDS011;406;48.566;13.450;2022-11-10T03:36:05;12.20;;;8.53;;
840;SDS011;406;48.566;13.450;2022-11-10T03:38:50;13.30;;;10.57;;
840;SDS011;406;48.566;13.450;2022-11-10T03:41:34;12.03;;;9.00;;
840;SDS011;406;48.566;13.450;2022-11-10T03:44:19;13.40;;;8.17;;
840;SDS011;406;48.566;13.450;2022-11-10T03:47:03;15.07;;;9.00;;
840;SDS011;406;48.566;13.450;2022-11-10T03:49:48;14.87;;;9.03;;
840;SDS011;406;48.566;13.450;2022-11-10T03:52:32;12.53;;;9.03;;
840;SDS011;406;48.566;13.450;2022-11-10T03:55:17;11.27;;;7.97;;
840;SDS011;406;48.566;13.450;2022-11-10T03:58:02;13.50;;;8.97;;
840;SDS011;406;48.566;13.450;2022-11-10T04:00:47;13.00;;;8.60;;
840;SDS011;406;48.566;13.450;2022-11-10T04:03:31;14.57;;;9.23;;
840;SDS011;406;48.566;13.450;2022-11-10T04:06:15;12.90;;;9.13;;
840;SDS011;406;48.566;13.450;2022-11-10T04:09:18;14.60;;;9.50;;
840;SDS011;406;48.566;13.450;2022-11-10T04:12:03;11.00;;;7.43;;
840;SDS011;406;48.566;13.450;2022-11-10T04:15:07;11.63;;;9.00;;
840;SDS011;406;48.566;13.450;2022-11-10T04:18:12;13.30;;;9.20;;
840;SDS011;406;48.566;13.450;2022-11-10T04:21:09;10.90;;;7.80;;
840;SDS011;406;48.566;13.450;2022-11-10T04:23:55;17.50;;;10.43;;
840;SDS011;406;48.566;13.450;2022-11-10T04:26:39;13.73;;;8.90;;
840;SDS011;406;48.566;13.450;2022-11-10T04:29:25;14.47;;;10.03;;
840;SDS011;406;48.566;13.450;2022-11-10T04:32:09;13.23;;;9.43;;
840;SDS011;406;48.566;13.450;2022-11-10T04:34:54;13.57;;;9.57;;
840;SDS011;406;48.566;13.450;2022-11-10T04:37:38;17.03;;;11.33;;
840;SDS011;406;48.566;13.450;2022-11-10T04:40:22;15.00;;;8.30;;
840;SDS011;406;48.566;13.450;2022-11-10T04:43:06;12.17;;;8.80;;
840;SDS011;406;48.566;13.450;2022-11-10T04:45:50;10.93;;;8.40;;
840;SDS011;406;48.566;13.450;2022-11-10T04:48:35;14.10;;;9.27;;
840;SDS011;406;48.566;13.450;2022-11-10T04:51:20;14.77;;;9.50;;
840;SDS011;406;48.566;13.450;2022-11-10T04:54:06;11.67;;;7.90;;
840;SDS011;406;48.566;13.450;2022-11-10T04:56:51;14.90;;;9.93;;
840;SDS011;406;48.566;13.450;2022-11-10T04:59:35;14.80;;;9.03;;
840;SDS011;406;48.566;13.450;2022-11-10T05:02:19;12.03;;;8.97;;
840;SDS011;406;48.566;13.450;2022-11-10T05:05:03;12.27;;;8.50;;
840;SDS011;406;48.566;13.450;2022-11-10T05:07:48;15.00;;;9.33;;
840;SDS011;406;48.566;13.450;2022-11-10T05:10:33;10.73;;;8.07;;
840;SDS011;406;48.566;13.450;2022-11-10T05:13:17;14.97;;;9.60;;
840;SDS011;406;48.566;13.450;2022-11-10T05:16:01;13.03;;;8.80;;
840;SDS011;406;48.566;13.450;2022-11-10T05:18:46;11.57;;;8.60;;
840;SDS011;406;48.566;13.450;2022-11-10T05:21:30;12.40;;;8.20;;
840;SDS011;406;48.566;13.450;2022-11-10T05:24:14;10.73;;;7.70;;
840;SDS011;406;48.566;13.450;2022-11-10T05:26:58;12.93;;;9.17;;
840;SDS011;406;48.566;13.450;2022-11-10T05:29:42;11.50;;;8.30;;
840;SDS011;406;48.566;13.450;2022-11-10T05:32:26;13.93;;;9.23;;
840;SDS011;406;48.566;13.450;2022-11-10T05:35:10;11.80;;;8.47;;
840;SDS011;406;48.566;13.450;2022-11-10T05:37:54;11.37;;;9.20;;
840;SDS011;406;48.566;13.450;2022-11-10T05:40:38;11.07;;;8.27;;
840;SDS011;406;48.566;13.450;2022-11-10T05:43:22;11.17;;;7.53;;
840;SDS011;406;48.566;13.450;2022-11-10T05:46:07;13.00;;;8.93;;
840;SDS011;406;48.566;13.450;2022-11-10T05:48:51;11.73;;;8.40;;
840;SDS011;406;48.566;13.450;2022-11-10T05:51:35;13.70;;;8.53;;
840;SDS011;406;48.566;13.450;2022-11-10T05:54:20;12.27;;;9.00;;
840;SDS011;406;48.566;13.450;2022-11-10T05:57:04;12.77;;;9.47;;
840;SDS011;406;48.566;13.450;2022-11-10T05:59:47;13.53;;;9.13;;
840;SDS011;406;48.566;13.450;2022-11-10T06:02:31;11.63;;;8.87;;
840;SDS011;406;48.566;13.450;2022-11-10T06:05:16;15.47;;;8.77;;
840;SDS011;406;48.566;13.450;2022-11-10T06:08:00;16.03;;;9.67;;
840;SDS011;406;48.566;13.450;2022-11-10T06:10:46;14.37;;;9.40;;
840;SDS011;406;48.566;13.450;2022-11-10T06:13:30;12.70;;;8.60;;
840;SDS011;406;48.566;13.450;2022-11-10T06:16:13;16.00;;;10.53;;
840;SDS011;406;48.566;13.450;2022-11-10T06:18:57;11.70;;;8.47;;
840;SDS011;406;48.566;13.450;2022-11-10T06:21:41;12.73;;;8.70;;
840;SDS011;406;48.566;13.450;2022-11-10T06:24:25;11.73;;;8.53;;
840;SDS011;406;48.566;13.450;2022-11-10T06:27:09;12.10;;;8.20;;
840;SDS011;406;48.566;13.450;2022-11-10T06:29:53;11.40;;;8.47;;
840;SDS011;406;48.566;13.450;2022-11-10T06:32:40;11.03;;;8.93;;
840;SDS011;406;48.566;13.450;2022-11-10T06:35:25;10.20;;;8.70;;
840;SDS011;406;48.566;13.450;2022-11-10T06:38:09;12.93;;;8.37;;
840;SDS011;406;48.566;13.450;2022-11-10T06:40:55;14.20;;;9.97;;
840;SDS011;406;48.566;13.450;2022-11-10T06:43:39;12.90;;;8.00;;
840;SDS011;406;48.566;13.450;2022-11-10T06:46:23;11.17;;;8.13;;
840;SDS011;406;48.566;13.450;2022-11-10T06:49:07;11.93;;;9.43;;
840;SDS011;406;48.566;13.450;2022-11-10T06:51:52;11.03;;;8.80;;
840;SDS011;406;48.566;13.450;2022-11-10T06:54:36;12.17;;;9.00;;
840;SDS011;406;48.566;13.450;2022-11-10T06:57:19;12.53;;;8.70;;
840;SDS011;406;48.566;13.450;2022-11-10T07:00:03;13.83;;;9.63;;
840;SDS011;406;48.566;13.450;2022-11-10T07:02:56;13.33;;;10.13;;
840;SDS011;406;48.566;13.450;2022-11-10T07:05:44;14.83;;;10.10;;
840;SDS011;406;48.566;13.450;2022-11-10T07:08:28;12.50;;;8.87;;
840;SDS011;406;48.566;13.450;2022-11-10T07:11:12;12.33;;;9.77;;
840;SDS011;406;48.566;13.450;2022-11-10T07:13:56;12.70;;;9.73;;
840;SDS011;406;48.566;13.450;2022-11-10T07:16:40;12.33;;;9.03;;
840;SDS011;406;48.566;13.450;2022-11-10T07:19:24;13.00;;;9.03;;
840;SDS011;406;48.566;13.450;2022-11-10T07:22:08;12.80;;;10.00;;
840;SDS011;406;48.566;13.450;2022-11-10T07:24:52;10.63;;;9.07;;
840;SDS011;406;48.566;13.450;2022-11-10T07:27:36;11.90;;;8.90;;
840;SDS011;406;48.566;13.450;2022-11-10T07:30:20;11.47;;;8.80;;
840;SDS011;406;48.566;13.450;2022-11-10T07:33:11;17.07;;;10.33;;
840;SDS011;406;48.566;13.450;2022-11-10T07:35:56;11.83;;;9.27;;
840;SDS011;406;48.566;13.450;2022-11-10T07:38:41;16.07;;;9.37;;
840;SDS011;406;48.566;13.450;2022-11-10T07:41:25;13.93;;;9.30;;
840;SDS011;406;48.566;13.450;2022-11-10T07:44:09;15.37;;;10.53;;
840;SDS011;406;48.566;13.450;2022-11-10T07:46:53;14.97;;;10.23;;
840;SDS011;406;48.566;13.450;2022-11-10T07:49:37;13.33;;;9.47;;
840;SDS011;406;48.566;13.450;2022-11-10T07:52:21;15.10;;;10.83;;
840;SDS011;406;48.566;13.450;2022-11-10T07:55:06;15.33;;;10.43;;
840;SDS011;406;48.566;13.450;2022-11-10T07:57:50;15.67;;;10.37;;
840;SDS011;406;48.566;13.450;2022-11-10T08:00:34;15.63;;;8.57;;
840;SDS011;406;48.566;13.450;2022-11-10T08:03:20;20.83;;;10.00;;
840;SDS011;406;48.566;13.450;2022-11-10T08:06:04;13.03;;;10.03;;
840;SDS011;406;48.566;13.450;2022-11-10T08:08:48;14.40;;;10.50;;
840;SDS011;406;48.566;13.450;2022-11-10T08:11:32;13.27;;;9.17;;
840;SDS011;406;48.566;13.450;2022-11-10T08:14:16;13.43;;;10.63;;
840;SDS011;406;48.566;13.450;2022-11-10T08:17:00;14.03;;;12.07;;
840;SDS011;406;48.566;13.450;2022-11-10T08:19:45;13.67;;;9.73;;
840;SDS011;406;48.566;13.450;2022-11-10T08:22:29;14.40;;;10.20;;
840;SDS011;406;48.566;13.450;2022-11-10T08:25:13;17.10;;;12.63;;
840;SDS011;406;48.566;13.450;2022-11-10T08:28:18;13.70;;;9.60;;
840;SDS011;406;48.566;13.450;2022-11-10T08:31:02;15.83;;;11.10;;
840;SDS011;406;48.566;13.450;2022-11-10T08:33:46;18.77;;;10.83;;
840;SDS011;406;48.566;13.450;2022-11-10T08:36:30;16.73;;;10.90;;
840;SDS011;406;48.566;13.450;2022-11-10T08:39:14;17.20;;;10.40;;
840;SDS011;406;48.566;13.450;2022-11-10T08:41:59;12.63;;;11.33;;
840;SDS011;406;48.566;13.450;2022-11-10T08:44:42;17.30;;;11.10;;
840;SDS011;406;48.566;13.450;2022-11-10T08:47:26;17.20;;;10.67;;
840;SDS011;406;48.566;13.450;2022-11-10T08:50:10;14.80;;;10.17;;
840;SDS011;406;48.566;13.450;2022-11-10T08:52:55;13.60;;;11.20;;
840;SDS011;406;48.566;13.450;2022-11-10T08:55:39;18.67;;;12.13;;
840;SDS011;406;48.566;13.450;2022-11-10T08:58:23;21.63;;;14.10;;
840;SDS011;406;48.566;13.450;2022-11-10T09:01:08;26.67;;;15.47;;
840;SDS011;406;48.566;13.450;2022-11-10T09:03:52;19.20;;;13.10;;
840;SDS011;406;48.566;13.450;2022-11-10T09:06:37;23.43;;;14.93;;
840;SDS011;406;48.566;13.450;2022-11-10T09:09:21;24.30;;;14.73;;
840;SDS011;406;48.566;13.450;2022-11-10T09:12:04;21.70;;;12.93;;
840;SDS011;406;48.566;13.450;2022-11-10T09:14:49;23.30;;;15.73;;
840;SDS011;406;48.566;13.450;2022-11-10T09:17:33;21.33;;;15.03;;
840;SDS011;406;48.566;13.450;2022-11-10T09:20:17;24.23;;;12.53;;
840;SDS011;406;48.566;13.450;2022-11-10T09:23:19;36.20;;;15.33;;
840;SDS011;406;48.566;13.450;2022-11-10T09:26:04;28.80;;;15.40;;
840;SDS011;406;48.566;13.450;2022-11-10T09:28:50;27.57;;;16.40;;
840;SDS011;406;48.566;13.450;2022-11-10T09:31:33;131.13;;;19.13;;
840;SDS011;406;48.566;13.450;2022-11-10T09:34:17;26.80;;;15.47;;
840;SDS011;406;48.566;13.450;2022-11-10T09:37:01;26.10;;;15.60;;
840;SDS011;406;48.566;13.450;2022-11-10T09:39:45;27.40;;;15.80;;
840;SDS011;406;48.566;13.450;2022-11-10T09:42:33;28.73;;;16.70;;
840;SDS011;406;48.566;13.450;2022-11-10T09:45:21;25.60;;;15.03;;
840;SDS011;406;48.566;13.450;2022-11-10T09:48:24;31.57;;;16.33;;
840;SDS011;406;48.566;13.450;2022-11-10T09:51:17;29.57;;;15.67;;
840;SDS011;406;48.566;13.450;2022-11-10T09:54:08;27.03;;;15.90;;
840;SDS011;406;48.566;13.450;2022-11-10T09:57:09;24.67;;;15.43;;
840;SDS011;406;48.566;13.450;2022-11-10T09:59:56;23.20;;;14.70;;
840;SDS011;406;48.566;13.450;2022-11-10T10:02:44;24.83;;;16.30;;
840;SDS011;406;48.566;13.450;2022-11-10T10:12:12;24.83;;;15.00;;
840;SDS011;406;48.566;13.450;2022-11-10T10:14:58;24.43;;;13.03;;
840;SDS011;406;48.566;13.450;2022-11-10T10:24:03;19.93;;;15.03;;
840;SDS011;406;48.566;13.450;2022-11-10T10:26:49;21.57;;;13.63;;
840;SDS011;406;48.566;13.450;2022-11-10T10:29:39;20.50;;;12.17;;
840;SDS011;406;48.566;13.450;2022-11-10T10:32:26;17.10;;;11.63;;
840;SDS011;406;48.566;13.450;2022-11-10T10:35:14;17.47;;;12.40;;
840;SDS011;406;48.566;13.450;2022-11-10T10:37:59;18.90;;;13.60;;
840;SDS011;406;48.566;13.450;2022-11-10T10:40:43;19.00;;;12.70;;
840;SDS011;406;48.566;13.450;2022-11-10T10:43:29;19.00;;;12.30;;
840;SDS011;406;48.566;13.450;2022-11-10T10:46:15;14.73;;;10.90;;
840;SDS011;406;48.566;13.450;2022-11-10T10:49:18;16.07;;;11.53;;
840;SDS011;406;48.566;13.450;2022-11-10T10:52:11;16.23;;;11.70;;
840;SDS011;406;48.566;13.450;2022-11-10T10:55:00;16.57;;;11.53;;
840;SDS011;406;48.566;13.450;2022-11-10T10:57:49;16.50;;;10.70;;
840;SDS011;406;48.566;13.450;2022-11-10T11:00:40;17.17;;;10.90;;
840;SDS011;406;48.566;13.450;2022-11-10T11:03:37;14.17;;;10.93;;
840;SDS011;406;48.566;13.450;2022-11-10T11:06:22;10.17;;;8.40;;
840;SDS011;406;48.566;13.450;2022-11-10T11:11:59;10.67;;;8.37;;
840;SDS011;406;48.566;13.450;2022-11-10T11:14:45;13.23;;;8.07;;
840;SDS011;406;48.566;13.450;2022-11-10T11:17:29;10.90;;;7.83;;
840;SDS011;406;48.566;13.450;2022-11-10T11:20:13;9.70;;;7.37;;
840;SDS011;406;48.566;13.450;2022-11-10T11:26:19;11.47;;;7.27;;
840;SDS011;406;48.566;13.450;2022-11-10T11:29:22;8.70;;;6.77;;
840;SDS011;406;48.566;13.450;2022-11-10T11:38:10;10.87;;;7.23;;
840;SDS011;406;48.566;13.450;2022-11-10T11:43:59;9.47;;;6.70;;
840;SDS011;406;48.566;13.450;2022-11-10T11:47:03;13.83;;;6.67;;
840;SDS011;406;48.566;13.450;2022-11-10T11:53:03;7.83;;;6.07;;
840;SDS011;406;48.566;13.450;2022-11-10T12:02:23;9.23;;;8.00;;
840;SDS011;406;48.566;13.450;2022-11-10T12:05:24;8.50;;;6.10;;
840;SDS011;406;48.566;13.450;2022-11-10T12:08:17;15.37;;;7.30;;
840;SDS011;406;48.566;13.450;2022-11-10T12:11:12;7.37;;;5.33;;
840;SDS011;406;48.566;13.450;2022-11-10T12:24:13;7.00;;;6.00;;
840;SDS011;406;48.566;13.450;2022-11-10T12:27:16;7.73;;;6.10;;
840;SDS011;406;48.566;13.450;2022-11-10T12:30:03;14.87;;;6.10;;
840;SDS011;406;48.566;13.450;2022-11-10T12:32:52;10.67;;;6.60;;
840;SDS011;406;48.566;13.450;2022-11-10T12:35:40;6.13;;;5.40;;
840;SDS011;406;48.566;13.450;2022-11-10T12:38:30;12.03;;;6.50;;
840;SDS011;406;48.566;13.450;2022-11-10T12:41:38;11.43;;;7.23;;
840;SDS011;406;48.566;13.450;2022-11-10T12:44:31;10.80;;;6.53;;
840;SDS011;406;48.566;13.450;2022-11-10T12:47:20;7.23;;;5.60;;
840;SDS011;406;48.566;13.450;2022-11-10T12:53:13;7.57;;;5.63;;
840;SDS011;406;48.566;13.450;2022-11-10T13:02:05;8.50;;;5.80;;
840;SDS011;406;48.566;13.450;2022-11-10T13:08:13;7.13;;;4.90;;
840;SDS011;406;48.566;13.450;2022-11-10T13:11:19;7.60;;;5.13;;
840;SDS011;406;48.566;13.450;2022-11-10T13:14:20;8.40;;;6.00;;
840;SDS011;406;48.566;13.450;2022-11-10T13:17:07;11.13;;;6.07;;
840;SDS011;406;48.566;13.450;2022-11-10T13:19:52;13.90;;;6.63;;
840;SDS011;406;48.566;13.450;2022-11-10T13:22:37;8.30;;;5.40;;
840;SDS011;406;48.566;13.450;2022-11-10T13:37:27;9.80;;;7.27;;
840;SDS011;406;48.566;13.450;2022-11-10T13:43:18;9.40;;;6.40;;
840;SDS011;406;48.566;13.450;2022-11-10T13:46:06;13.53;;;6.20;;
840;SDS011;406;48.566;13.450;2022-11-10T13:49:12;9.43;;;5.93;;
840;SDS011;406;48.566;13.450;2022-11-10T13:52:18;11.90;;;8.93;;
840;SDS011;406;48.566;13.450;2022-11-10T13:58:01;6.97;;;5.63;;
840;SDS011;406;48.566;13.450;2022-11-10T14:00:48;9.10;;;6.60;;
840;SDS011;406;48.566;13.450;2022-11-10T14:06:37;8.10;;;6.17;;
840;SDS011;406;48.566;13.450;2022-11-10T14:09:27;10.10;;;6.90;;
840;SDS011;406;48.566;13.450;2022-11-10T14:12:27;7.40;;;5.47;;
840;SDS011;406;48.566;13.450;2022-11-10T14:15:38;9.40;;;5.23;;
840;SDS011;406;48.566;13.450;2022-11-10T14:18:25;9.17;;;6.50;;
840;SDS011;406;48.566;13.450;2022-11-10T14:21:19;8.43;;;6.30;;
840;SDS011;406;48.566;13.450;2022-11-10T14:27:04;8.77;;;6.13;;
840;SDS011;406;48.566;13.450;2022-11-10T14:30:02;9.60;;;7.23;;
840;SDS011;406;48.566;13.450;2022-11-10T14:33:00;7.67;;;6.33;;
840;SDS011;406;48.566;13.450;2022-11-10T14:35:47;8.80;;;6.70;;
840;SDS011;406;48.566;13.450;2022-11-10T14:38:33;6.07;;;5.47;;
840;SDS011;406;48.566;13.450;2022-11-10T14:41:20;6.27;;;5.67;;
840;SDS011;406;48.566;13.450;2022-11-10T14:44:05;7.37;;;5.30;;
840;SDS011;406;48.566;13.450;2022-11-10T14:46:50;9.03;;;6.47;;
840;SDS011;406;48.566;13.450;2022-11-10T14:49:34;13.07;;;5.80;;
840;SDS011;406;48.566;13.450;2022-11-10T14:52:18;8.53;;;6.40;;
840;SDS011;406;48.566;13.450;2022-11-10T14:55:17;7.97;;;5.83;;
840;SDS011;406;48.566;13.450;2022-11-10T14:58:06;11.57;;;5.80;;
840;SDS011;406;48.566;13.450;2022-11-10T15:00:54;6.97;;;5.33;;
840;SDS011;406;48.566;13.450;2022-11-10T15:03:39;5.93;;;4.80;;
840;SDS011;406;48.566;13.450;2022-11-10T15:06:24;8.80;;;5.87;;
840;SDS011;406;48.566;13.450;2022-11-10T15:09:12;9.00;;;5.60;;
840;SDS011;406;48.566;13.450;2022-11-10T15:12:18;8.03;;;5.33;;
840;SDS011;406;48.566;13.450;2022-11-10T15:15:13;16.43;;;5.60;;
840;SDS011;406;48.566;13.450;2022-11-10T15:18:00;8.70;;;5.90;;
840;SDS011;406;48.566;13.450;2022-11-10T15:20:54;9.27;;;5.57;;
840;SDS011;406;48.566;13.450;2022-11-10T15:23:42;7.27;;;5.43;;
840;SDS011;406;48.566;13.450;2022-11-10T15:26:30;6.73;;;5.57;;
840;SDS011;406;48.566;13.450;2022-11-10T15:29:20;8.13;;;5.33;;
840;SDS011;406;48.566;13.450;2022-11-10T15:32:11;6.40;;;5.27;;
840;SDS011;406;48.566;13.450;2022-11-10T15:35:41;6.20;;;5.33;;
840;SDS011;406;48.566;13.450;2022-11-10T15:41:10;11.03;;;6.40;;
840;SDS011;406;48.566;13.450;2022-11-10T15:43:55;7.43;;;5.50;;
840;SDS011;406;48.566;13.450;2022-11-10T15:46:40;10.17;;;5.70;;
840;SDS011;406;48.566;13.450;2022-11-10T15:49:25;9.63;;;5.73;;
840;SDS011;406;48.566;13.450;2022-11-10T15:52:15;6.90;;;5.90;;
840;SDS011;406;48.566;13.450;2022-11-10T15:55:02;5.73;;;5.13;;
840;SDS011;406;48.566;13.450;2022-11-10T15:57:46;8.70;;;6.37;;
840;SDS011;406;48.566;13.450;2022-11-10T16:00:30;7.70;;;6.43;;
840;SDS011;406;48.566;13.450;2022-11-10T16:03:18;8.30;;;6.80;;
840;SDS011;406;48.566;13.450;2022-11-10T16:06:03;8.73;;;6.10;;
840;SDS011;406;48.566;13.450;2022-11-10T16:08:47;11.20;;;5.00;;
840;SDS011;406;48.566;13.450;2022-11-10T16:11:33;7.00;;;6.00;;
840;SDS011;406;48.566;13.450;2022-11-10T16:14:18;7.90;;;6.67;;
840;SDS011;406;48.566;13.450;2022-11-10T16:17:02;9.40;;;6.80;;
840;SDS011;406;48.566;13.450;2022-11-10T16:19:46;9.60;;;5.20;;
840;SDS011;406;48.566;13.450;2022-11-10T16:22:30;7.43;;;5.50;;
840;SDS011;406;48.566;13.450;2022-11-10T16:25:14;7.83;;;6.60;;
840;SDS011;406;48.566;13.450;2022-11-10T16:27:59;8.30;;;6.20;;
840;SDS011;406;48.566;13.450;2022-11-10T16:30:46;9.90;;;6.30;;
840;SDS011;406;48.566;13.450;2022-11-10T16:33:30;8.37;;;5.93;;
840;SDS011;406;48.566;13.450;2022-11-10T16:36:18;8.37;;;6.10;;
840;SDS011;406;48.566;13.450;2022-11-10T16:39:10;8.23;;;5.90;;
840;SDS011;406;48.566;13.450;2022-11-10T16:41:55;8.47;;;6.30;;
840;SDS011;406;48.566;13.450;2022-11-10T16:44:40;7.53;;;6.43;;
840;SDS011;406;48.566;13.450;2022-11-10T16:47:23;9.93;;;7.13;;
840;SDS011;406;48.566;13.450;2022-11-10T16:53:15;8.10;;;6.37;;
840;SDS011;406;48.566;13.450;2022-11-10T16:56:00;8.00;;;6.80;;
840;SDS011;406;48.566;13.450;2022-11-10T16:58:45;10.30;;;7.57;;
840;SDS011;406;48.566;13.450;2022-11-10T17:01:30;11.67;;;7.90;;
840;SDS011;406;48.566;13.450;2022-11-10T17:04:16;9.00;;;7.40;;
840;SDS011;406;48.566;13.450;2022-11-10T17:07:00;14.10;;;8.00;;
840;SDS011;406;48.566;13.450;2022-11-10T17:09:45;10.20;;;7.23;;
840;SDS011;406;48.566;13.450;2022-11-10T17:12:29;10.77;;;8.37;;
840;SDS011;406;48.566;13.450;2022-11-10T17:15:13;14.07;;;8.17;;
840;SDS011;406;48.566;13.450;2022-11-10T17:17:58;12.10;;;8.43;;
840;SDS011;406;48.566;13.450;2022-11-10T17:20:46;12.83;;;9.13;;
840;SDS011;406;48.566;13.450;2022-11-10T17:23:32;13.10;;;10.30;;
840;SDS011;406;48.566;13.450;2022-11-10T17:26:18;16.80;;;10.10;;
840;SDS011;406;48.566;13.450;2022-11-10T17:29:02;12.00;;;9.50;;
840;SDS011;406;48.566;13.450;2022-11-10T17:31:46;12.13;;;8.90;;
840;SDS011;406;48.566;13.450;2022-11-10T17:34:33;15.10;;;9.60;;
840;SDS011;406;48.566;13.450;2022-11-10T17:37:17;21.00;;;9.43;;
840;SDS011;406;48.566;13.450;2022-11-10T17:40:02;21.20;;;9.97;;
840;SDS011;406;48.566;13.450;2022-11-10T17:42:56;18.90;;;9.93;;
840;SDS011;406;48.566;13.450;2022-11-10T17:45:40;11.47;;;8.80;;
840;SDS011;406;48.566;13.450;2022-11-10T17:48:24;18.17;;;11.10;;
840;SDS011;406;48.566;13.450;2022-11-10T17:51:09;17.80;;;11.73;;
840;SDS011;406;48.566;13.450;2022-11-10T17:53:56;14.50;;;9.90;;
840;SDS011;406;48.566;13.450;2022-11-10T17:56:41;16.20;;;12.07;;
840;SDS011;406;48.566;13.450;2022-11-10T17:59:25;14.97;;;11.00;;
840;SDS011;406;48.566;13.450;2022-11-10T18:02:10;18.63;;;10.97;;
840;SDS011;406;48.566;13.450;2022-11-10T18:04:54;16.67;;;10.20;;
840;SDS011;406;48.566;13.450;2022-11-10T18:07:38;18.13;;;12.30;;
840;SDS011;406;48.566;13.450;2022-11-10T18:10:22;16.30;;;10.70;;
840;SDS011;406;48.566;13.450;2022-11-10T18:13:07;17.50;;;10.47;;
840;SDS011;406;48.566;13.450;2022-11-10T18:15:52;27.77;;;11.97;;
840;SDS011;406;48.566;13.450;2022-11-10T18:18:40;29.33;;;11.80;;
840;SDS011;406;48.566;13.450;2022-11-10T18:21:24;22.33;;;10.83;;
840;SDS011;406;48.566;13.450;2022-11-10T18:24:08;18.60;;;11.73;;
840;SDS011;406;48.566;13.450;2022-11-10T18:26:52;30.50;;;13.30;;
840;SDS011;406;48.566;13.450;2022-11-10T18:29:36;19.37;;;12.27;;
840;SDS011;406;48.566;13.450;2022-11-10T18:32:21;20.17;;;12.37;;
840;SDS011;406;48.566;13.450;2022-11-10T18:35:06;32.50;;;15.67;;
840;SDS011;406;48.566;13.450;2022-11-10T18:37:50;21.83;;;12.77;;
840;SDS011;406;48.566;13.450;2022-11-10T18:40:34;21.60;;;13.30;;
840;SDS011;406;48.566;13.450;2022-11-10T18:43:18;21.37;;;12.83;;
840;SDS011;406;48.566;13.450;2022-11-10T18:46:02;17.90;;;11.87;;
840;SDS011;406;48.566;13.450;2022-11-10T18:48:46;24.33;;;12.73;;
840;SDS011;406;48.566;13.450;2022-11-10T18:51:31;35.13;;;14.20;;